OIBJ

Details ICAO OIBJ
Name JAM
Region Iran
Timezone Asia/Tehran (UTC+4.5)
Plans Departing 0
Arriving 1
Stats Elevation 2,173 ft / 662 m (AMSL)
Location 27.820547° 52.352173°
Runways 1
Magnetic Variation 2.867° E
Sunrise 2018-05-27 01:37:38 UTC / 2018-05-27 06:07:38 Local
Sunset 2018-05-27 15:20:42 UTC / 2018-05-27 19:50:42 Local
Advertisement - Login to hide

Runways

ID Width Length Bearing (true) Bearing (mag) Surface Threshold Offset Overrun Length
11 148 ft / 45 m 7,706 ft / 2,349 m 114.89° 112.02° Asphalt 0 ft / 0 m 495 ft / 151 m
29 148 ft / 45 m 7,706 ft / 2,349 m 294.90° 292.03° Asphalt 0 ft / 0 m 495 ft / 151 m

Map

Weather


0- 5 10 15 20 25 30 35+ Temperature / ° C

Clouds and Precipitation
Forecast for 2018-05-27 06:00 UTC. Updated 4 minutes ago

Ground ~20,000 ft ~40,000 ft Winds

METAR

OIBJ 270500Z 00000KT CAVOK 34/10 Q1012

TAF

Not found

Frequencies

Tower 124.35 MHz INFO
Tower 121.65 MHz INFO
Warning: Do not use this data for real-world aviation or navigation. No guarantee of current accuracy is given.